Time;durP1;ratioP1;P1;durP2;ratioP2;P2;SDS_P1;SDS_P2;PMS_P1;PMS_P2;Temp;Humidity;BMP_temperature;BMP_pressure;BME280_temperature;BME280_humidity;BME280_pressure;Samples;Min_cycle;Max_cycle;Signal;HPM_P1;HPM_P2
2021/11/02 00:00:38;;;;;;;52.17;42.83;;;;;;;6.26;77.73;100239.39;1704152;82;21007;-67
2021/11/02 00:03:06;;;;;;;51.97;41.50;;;;;;;6.22;77.72;100234.09;1701145;82;20998;-66
2021/11/02 00:05:33;;;;;;;56.00;43.17;;;;;;;6.22;77.72;100238.06;1693748;82;21010;-67
2021/11/02 00:08:01;;;;;;;52.73;39.93;;;;;;;6.23;77.51;100236.59;1697872;82;21078;-66
2021/11/02 00:10:31;;;;;;;52.23;39.83;;;;;;;6.27;77.54;100241.03;1706712;82;21038;-66
2021/11/02 00:12:57;;;;;;;54.37;40.23;;;;;;;6.30;77.43;100239.40;1682352;82;21006;-66
2021/11/02 00:15:26;;;;;;;;;;;;;;;6.30;77.26;100231.95;1672603;85;21038;-67
2021/11/02 00:17:58;;;;;;;58.70;41.77;;;;;;;6.21;77.29;100237.72;1657023;84;20556;-66
2021/11/02 00:20:24;;;;;;;65.37;41.77;;;;;;;6.07;77.78;100238.37;1649959;84;21029;-67
2021/11/02 00:22:58;;;;;;;55.90;42.45;;;;;;;6.00;78.04;100235.02;1653468;84;21106;-66
2021/11/02 00:25:24;;;;;;;51.93;40.27;;;;;;;5.99;78.17;100225.91;1648470;84;21023;-67
2021/11/02 00:27:51;;;;;;;51.13;39.37;;;;;;;6.05;78.08;100226.62;1651516;84;21049;-65
2021/11/02 00:30:19;;;;;;;51.00;41.35;;;;;;;6.11;78.08;100218.02;1652100;85;21058;-66
2021/11/02 00:32:50;;;;;;;53.43;42.83;;;;;;;6.13;78.03;100218.69;1661769;84;21533;-67
2021/11/02 00:35:18;;;;;;;56.03;42.87;;;;;;;6.11;78.17;100212.73;1675113;84;21108;-67
2021/11/02 00:37:45;;;;;;;51.13;40.87;;;;;;;6.11;78.17;100215.38;1659644;85;21116;-67
2021/11/02 00:40:16;;;;;;;62.50;42.70;;;;;;;6.09;78.00;100208.09;1642908;85;21010;-66
2021/11/02 00:42:56;;;;;;;56.20;41.30;;;;;;;6.06;77.92;100218.99;1667490;84;21006;-67
2021/11/02 00:45:30;;;;;;;48.47;38.53;;;;;;;6.11;77.99;100221.17;1688046;82;21033;-66
2021/11/02 00:47:59;;;;;;;54.67;42.37;;;;;;;6.14;77.78;100220.83;1682780;82;21521;-66
2021/11/02 00:50:27;;;;;;;51.67;41.77;;;;;;;6.13;77.89;100209.42;1689090;82;21053;-66
2021/11/02 00:52:55;;;;;;;52.13;42.93;;;;;;;6.11;77.99;100217.20;1696380;82;21022;-67
2021/11/02 00:55:21;;;;;;;54.80;42.73;;;;;;;6.11;78.10;100216.70;1687867;82;20990;-67
2021/11/02 00:57:47;;;;;;;53.83;40.35;;;;;;;6.12;78.11;100209.58;1695593;82;21096;-67
2021/11/02 01:00:15;;;;;;;54.48;40.90;;;;;;;6.14;77.93;100208.45;1705268;82;21015;-67
2021/11/02 01:02:43;;;;;;;64.00;43.97;;;;;;;6.19;77.58;100216.70;1709189;82;21089;-66
2021/11/02 01:05:11;;;;;;;;;;;;;;;6.20;77.47;100204.32;1696899;82;21022;-66
2021/11/02 01:07:38;;;;;;;62.45;42.30;;;;;;;6.19;77.53;100209.27;1683733;82;20138;-66
2021/11/02 01:10:12;;;;;;;72.67;46.70;;;;;;;6.13;77.70;100209.92;1706434;82;21178;-65
2021/11/02 01:12:35;;;;;;;73.80;46.90;;;;;;;6.07;78.05;100214.55;1703614;82;21013;-66
2021/11/02 01:15:01;;;;;;;70.10;47.62;;;;;;;6.01;78.42;100202.80;1691724;82;21764;-67
2021/11/02 01:17:28;;;;;;;65.23;46.90;;;;;;;6.01;78.69;100194.86;1709584;82;21534;-65
2021/11/02 01:19:54;;;;;;;62.95;45.60;;;;;;;6.02;78.65;100193.34;1703956;82;21073;-67
2021/11/02 01:22:20;;;;;;;66.67;44.93;;;;;;;6.08;78.52;100191.05;1707578;82;21063;-67
2021/11/02 01:24:47;;;;;;;87.60;49.18;;;;;;;6.20;78.26;100194.55;1686343;82;21030;-66
2021/11/02 01:27:13;;;;;;;78.30;47.50;;;;;;;6.29;77.98;100190.11;1697131;82;21022;-66
2021/11/02 01:29:40;;;;;;;56.30;43.87;;;;;;;6.31;77.70;100186.80;1704311;82;21065;-67
2021/11/02 01:32:08;;;;;;;;;;;;;;;6.24;77.95;100185.29;1701712;82;21291;-67
2021/11/02 01:34:36;;;;;;;56.77;44.10;;;;;;;6.22;78.22;100190.42;1696618;82;20157;-66
2021/11/02 01:37:04;;;;;;;54.80;42.00;;;;;;;6.14;78.40;100187.75;1704228;82;21086;-67
2021/11/02 01:39:31;;;;;;;52.93;39.97;;;;;;;6.17;78.40;100186.11;1670844;82;21029;-67
2021/11/02 01:41:57;;;;;;;57.23;41.40;;;;;;;6.21;78.44;100181.63;1694091;82;21026;-67
2021/11/02 01:44:23;;;;;;;52.33;41.28;;;;;;;6.21;78.45;100183.46;1680228;83;21689;-68
2021/11/02 01:46:49;;;;;;;53.45;41.28;;;;;;;6.20;78.63;100173.88;1710502;82;21105;-68
2021/11/02 01:49:18;;;;;;;;;;;;;;;6.18;78.88;100181.98;1701777;82;21066;-68
2021/11/02 01:51:44;;;;;;;58.47;43.63;;;;;;;6.14;79.36;100183.78;1704488;82;20442;-67
2021/11/02 01:54:11;;;;;;;64.72;42.55;;;;;;;6.01;79.60;100177.16;1709152;82;21463;-66
2021/11/02 01:56:41;;;;;;;60.20;43.40;;;;;;;6.08;79.80;100182.61;1694096;82;21050;-68
2021/11/02 01:59:08;;;;;;;60.53;42.90;;;;;;;6.19;79.73;100181.48;1711347;82;20998;-67
2021/11/02 02:01:54;;;;;;;63.57;45.40;;;;;;;6.28;79.66;100171.23;1711514;82;21029;-66
2021/11/02 02:04:58;;;;;;;93.37;50.47;;;;;;;6.33;79.53;100164.95;1699694;82;21081;-66
2021/11/02 02:07:31;;;;;;;105.80;57.30;;;;;;;6.33;79.57;100166.28;1690642;82;21019;-67
2021/11/02 02:10:34;;;;;;;74.67;48.20;;;;;;;6.33;79.85;100157.02;1699135;82;21589;-68
2021/11/02 02:13:15;;;;;;;78.93;47.17;;;;;;;6.40;79.75;100154.52;1690569;82;21048;-66
2021/11/02 02:15:57;;;;;;;68.73;41.80;;;;;;;6.54;79.34;100157.84;1685760;82;21022;-67
2021/11/02 02:18:39;;;;;;;54.40;42.60;;;;;;;6.61;78.88;100161.95;1704168;82;21003;-66
2021/11/02 02:21:52;;;;;;;55.03;41.43;;;;;;;6.59;78.92;100154.20;1702495;82;22306;-66
2021/11/02 02:24:34;;;;;;;55.73;42.27;;;;;;;6.54;79.03;100154.37;1703347;82;21129;-66
2021/11/02 02:27:24;;;;;;;56.43;44.33;;;;;;;6.40;79.28;100154.05;1695038;82;21018;-67
2021/11/02 02:29:52;;;;;;;58.50;43.10;;;;;;;6.36;79.72;100152.70;1696918;82;21047;-67
2021/11/02 02:32:26;;;;;;;65.80;45.00;;;;;;;6.40;79.58;100150.55;1700889;82;21057;-67
2021/11/02 02:34:56;;;;;;;72.13;46.07;;;;;;;6.50;79.50;100149.05;1708606;82;21038;-67
2021/11/02 02:37:25;;;;;;;77.53;49.13;;;;;;;6.56;79.33;100140.46;1690283;82;20998;-66
2021/11/02 02:39:55;;;;;;;83.57;50.53;;;;;;;6.58;79.20;100142.44;1704369;82;21046;-66
2021/11/02 02:42:26;;;;;;;71.27;46.57;;;;;;;6.57;79.43;100138.98;1689674;82;21497;-65
2021/11/02 02:44:54;;;;;;;66.43;47.00;;;;;;;6.57;79.42;100139.45;1701019;82;21125;-66
2021/11/02 02:47:23;;;;;;;66.83;45.90;;;;;;;6.55;79.44;100136.14;1697119;82;20994;-66
2021/11/02 02:49:50;;;;;;;59.47;42.40;;;;;;;6.56;79.46;100124.06;1694145;82;21514;-66
2021/11/02 02:52:17;;;;;;;52.83;41.90;;;;;;;6.66;79.25;100125.20;1692218;82;21038;-67
2021/11/02 02:54:47;;;;;;;56.07;43.73;;;;;;;6.71;79.05;100123.40;1709879;82;21080;-67
2021/11/02 02:57:18;;;;;;;55.20;43.97;;;;;;;6.71;78.88;100127.37;1708445;82;21089;-66
2021/11/02 02:59:47;;;;;;;51.77;40.03;;;;;;;6.69;79.03;100126.71;1702789;82;21287;-65
2021/11/02 03:02:14;;;;;;;57.83;43.97;;;;;;;6.65;78.85;100127.55;1675812;84;21478;-69
2021/11/02 03:04:45;;;;;;;53.57;43.37;;;;;;;6.59;78.74;100124.22;1701789;82;20984;-68
2021/11/02 03:07:11;;;;;;;49.03;37.97;;;;;;;6.57;78.95;100124.88;1706129;82;21545;-68
2021/11/02 03:09:44;;;;;;;54.90;41.93;;;;;;;6.65;78.72;100121.40;1705936;82;21548;-68
2021/11/02 03:12:13;;;;;;;49.90;40.87;;;;;;;6.65;78.59;100124.89;1685084;82;21005;-68
2021/11/02 03:14:53;;;;;;;53.80;41.47;;;;;;;6.64;78.62;100121.91;1703251;82;21027;-68
2021/11/02 03:17:21;;;;;;;55.12;43.60;;;;;;;6.57;78.85;100115.14;1687261;82;21011;-66
2021/11/02 03:47:55;;;;;;;54.30;40.57;;;;;;;6.30;80.92;100110.19;1667450;84;21075;-70
2021/11/02 03:58:36;;;;;;;48.83;40.20;;;;;;;6.23;81.59;100094.98;1689562;82;21106;-69
2021/11/02 04:31:19;;;;;;;53.13;40.37;;;;;;;6.14;82.51;100066.86;1703248;82;21018;-70
2021/11/02 05:48:51;;;;;;;55.25;35.98;;;;;;;6.22;84.78;99987.95;1705609;82;21074;-70
2021/11/02 05:58:17;;;;;;;42.43;33.67;;;;;;;6.58;84.81;100043.13;1710554;82;21600;-69
2021/11/02 06:00:58;;;;;;;48.83;36.60;;;;;;;6.63;84.74;100046.11;1704001;82;21105;-69
2021/11/02 06:03:27;;;;;;;48.90;36.70;;;;;;;6.64;84.83;100047.75;1704826;82;21232;-69
2021/11/02 06:29:18;;;;;;;41.63;34.10;;;;;;;6.67;84.89;100057.16;1685072;83;21512;-71
2021/11/02 06:31:56;;;;;;;48.67;35.33;;;;;;;6.70;84.78;100061.63;1683070;83;21034;-70
2021/11/02 06:42:45;;;;;;;47.50;34.20;;;;;;;6.74;85.06;100051.52;1656999;85;21502;-70
2021/11/02 06:53:39;;;;;;;39.97;29.87;;;;;;;6.85;84.43;100048.50;1670599;85;22199;-70
2021/11/02 07:18:23;;;;;;;45.57;34.30;;;;;;;6.95;84.67;100055.77;1673055;85;21006;-72
2021/11/02 07:26:13;;;;;;;42.40;34.27;;;;;;;6.79;84.74;100030.66;1651540;85;21517;-73
2021/11/02 08:48:01;;;;;;;28.03;21.83;;;;;;;7.25;86.40;99981.71;1680048;85;21010;-69
2021/11/02 08:50:24;;;;;;;24.67;20.40;;;;;;;7.29;86.26;99983.04;1673553;85;21545;-70
2021/11/02 08:52:54;;;;;;;25.80;21.37;;;;;;;7.35;86.06;99977.53;1657975;85;21013;-69
2021/11/02 08:55:20;;;;;;;22.47;18.17;;;;;;;7.36;85.73;99976.52;1649380;82;21516;-68
2021/11/02 08:57:48;;;;;;;18.77;16.87;;;;;;;7.36;85.87;99975.19;1665117;84;21049;-70
2021/11/02 09:00:17;;;;;;;20.83;18.40;;;;;;;7.34;85.98;99970.56;1666783;83;21127;-69
2021/11/02 09:02:53;;;;;;;23.37;19.53;;;;;;;7.29;86.21;99962.31;1699487;83;21052;-69
2021/11/02 09:05:29;;;;;;;21.37;18.17;;;;;;;7.31;86.31;99955.00;1688470;83;21504;-68
2021/11/02 09:07:59;;;;;;;23.07;18.60;;;;;;;7.40;86.16;99956.12;1689899;83;21128;-70
2021/11/02 09:10:25;;;;;;;22.90;18.50;;;;;;;7.44;86.13;99949.96;1712681;83;21041;-71
2021/11/02 09:12:58;;;;;;;19.70;17.53;;;;;;;7.46;86.12;99945.30;1723151;82;20996;-70
2021/11/02 09:15:33;;;;;;;24.57;18.60;;;;;;;7.44;86.27;99937.18;1729894;82;21009;-70
2021/11/02 09:18:07;;;;;;;19.13;17.13;;;;;;;7.42;86.20;99933.37;1731230;82;21159;-70
2021/11/02 09:20:38;;;;;;;16.13;14.27;;;;;;;7.48;86.31;99930.03;1715849;82;21452;-68
2021/11/02 09:23:07;;;;;;;17.80;15.83;;;;;;;7.52;86.21;99928.67;1721444;82;21085;-69
2021/11/02 09:25:36;;;;;;;15.33;13.87;;;;;;;7.58;86.28;99925.80;1726294;83;21100;-68
2021/11/02 09:28:02;;;;;;;17.83;16.17;;;;;;;7.59;86.24;99924.31;1722139;83;21174;-68
2021/11/02 09:30:31;;;;;;;16.47;14.87;;;;;;;7.55;86.28;99916.87;1724825;83;21555;-69
2021/11/02 09:32:59;;;;;;;16.03;14.43;;;;;;;7.55;86.33;99911.09;1723758;83;21062;-69
2021/11/02 09:35:28;;;;;;;15.87;13.47;;;;;;;7.62;86.30;99906.38;1731139;82;20975;-71
2021/11/02 09:38:03;;;;;;;16.17;14.50;;;;;;;7.69;86.31;99895.37;1744965;80;21030;-70
2021/11/02 09:40:48;;;;;;;17.53;15.70;;;;;;;7.71;86.13;99894.70;1745774;80;21011;-70
2021/11/02 09:43:39;;;;;;;18.37;16.47;;;;;;;7.71;86.28;99897.34;1747648;80;20979;-71
2021/11/02 09:46:38;;;;;;;16.00;13.70;;;;;;;7.67;86.30;99888.11;1678649;82;21006;-71
2021/11/02 09:49:55;;;;;;;15.70;14.10;;;;;;;7.65;86.49;99880.80;1656831;85;21493;-69
2021/11/02 09:52:47;;;;;;;15.07;13.57;;;;;;;7.70;86.42;99875.28;1667280;84;21046;-70
2021/11/02 09:55:43;;;;;;;16.83;15.03;;;;;;;7.76;86.50;99868.42;1673714;84;21000;-73
2021/11/02 09:58:51;;;;;;;17.33;15.63;;;;;;;7.81;86.41;99871.36;1686241;84;21461;-70
2021/11/02 10:01:52;;;;;;;18.70;16.83;;;;;;;7.81;86.52;99866.06;1678954;84;21252;-71
2021/11/02 10:04:41;;;;;;;18.60;16.60;;;;;;;7.77;86.59;99866.11;1672727;84;21560;-73
2021/11/02 10:07:33;;;;;;;17.00;15.20;;;;;;;7.75;86.63;99851.69;1685660;84;21061;-70
2021/11/02 10:10:21;;;;;;;17.43;15.77;;;;;;;7.82;86.59;99853.12;1686878;84;21193;-69
2021/11/02 10:13:24;;;;;;;17.87;15.95;;;;;;;7.84;86.49;99849.78;1674382;84;21035;-69
2021/11/02 10:16:09;;;;;;;18.27;16.37;;;;;;;7.87;86.54;99847.26;1682226;84;20996;-71
2021/11/02 10:18:55;;;;;;;15.90;14.30;;;;;;;7.52;86.61;99793.41;1667495;84;21099;-70
2021/11/02 10:22:06;;;;;;;14.30;12.90;;;;;;;7.81;86.90;99838.20;1673033;84;21478;-70
2021/11/02 10:25:13;;;;;;;15.40;13.77;;;;;;;7.79;86.85;99822.45;1681514;85;21023;-72
2021/11/02 10:28:01;;;;;;;16.67;13.97;;;;;;;7.88;87.01;99831.67;1681103;84;21047;-71
2021/11/02 10:30:42;;;;;;;17.07;15.38;;;;;;;7.97;86.98;99818.63;1669151;84;21157;-71
2021/11/02 10:33:36;;;;;;;17.20;15.50;;;;;;;7.97;86.98;99818.63;1683260;84;21610;-71
2021/11/02 10:36:31;;;;;;;16.43;14.53;;;;;;;8.02;87.01;99817.55;1679816;84;21054;-72
2021/11/02 10:39:11;;;;;;;17.23;15.47;;;;;;;8.09;87.04;99807.03;1684035;84;21091;-71
2021/11/02 10:41:49;;;;;;;16.23;14.60;;;;;;;8.10;87.07;99798.05;1690990;84;21502;-72
2021/11/02 10:44:22;;;;;;;18.03;16.13;;;;;;;8.05;86.75;99807.09;1699357;84;21007;-70
2021/11/02 10:47:06;;;;;;;15.80;14.20;;;;;;;7.99;86.68;99801.50;1654308;85;21087;-71
2021/11/02 10:50:10;;;;;;;16.47;14.87;;;;;;;8.03;86.70;99791.86;1670472;85;21122;-71
2021/11/02 10:52:41;;;;;;;15.47;14.07;;;;;;;8.05;86.79;99789.84;1665295;85;21115;-74
2021/11/02 10:55:49;;;;;;;14.13;12.73;;;;;;;8.05;86.88;99788.00;1656571;85;21129;-73
2021/11/02 10:58:41;;;;;;;15.57;14.07;;;;;;;7.99;87.02;99780.27;1666456;85;21028;-70
2021/11/02 11:01:11;;;;;;;16.03;14.43;;;;;;;8.09;86.97;99788.45;1647314;85;21129;-72
2021/11/02 11:03:42;;;;;;;15.73;14.23;;;;;;;8.05;86.99;99776.57;1641461;86;21262;-72
2021/11/02 11:06:11;;;;;;;17.73;15.90;;;;;;;7.97;87.18;99775.66;1672900;84;21531;-70
2021/11/02 11:08:47;;;;;;;15.57;14.00;;;;;;;7.96;87.36;99762.57;1678090;84;21276;-75
2021/11/02 11:11:18;;;;;;;16.80;13.98;;;;;;;8.03;87.34;99765.31;1685118;83;21094;-70
2021/11/02 11:13:49;;;;;;;16.00;14.53;;;;;;;8.06;87.23;99757.81;1648542;86;21566;-71
2021/11/02 11:16:19;;;;;;;15.27;13.80;;;;;;;8.06;87.30;99748.52;1632378;87;21557;-70
2021/11/02 11:19:27;;;;;;;16.80;15.13;;;;;;;8.07;87.38;99745.35;1613659;86;21049;-71
2021/11/02 11:21:59;;;;;;;17.53;15.47;;;;;;;8.09;87.46;99738.02;1632222;86;21094;-71
2021/11/02 11:24:47;;;;;;;15.90;14.33;;;;;;;8.08;87.57;99740.34;1625824;86;21585;-71
2021/11/02 11:27:17;;;;;;;19.93;17.93;;;;;;;8.07;87.59;99740.05;1607389;88;21026;-72
2021/11/02 11:29:47;;;;;;;14.70;13.17;;;;;;;8.09;87.75;99736.19;1632369;86;21456;-73
2021/11/02 11:32:16;;;;;;;14.97;13.33;;;;;;;8.09;87.90;99726.08;1632393;86;21086;-73
2021/11/02 11:34:46;;;;;;;14.67;13.23;;;;;;;8.13;88.08;99722.03;1630084;86;20983;-72
2021/11/02 11:37:15;;;;;;;16.00;14.47;;;;;;;8.16;88.04;99730.45;1601318;88;21060;-68
2021/11/02 11:39:44;;;;;;;15.27;13.67;;;;;;;8.17;88.04;99724.14;1624515;87;21128;-70
2021/11/02 11:42:15;;;;;;;12.67;11.47;;;;;;;8.22;88.12;99722.75;1623658;88;21053;-69
2021/11/02 11:44:45;;;;;;;14.33;13.03;;;;;;;8.25;88.09;99708.59;1601420;86;21530;-71
2021/11/02 11:47:15;;;;;;;14.73;13.40;;;;;;;8.25;87.99;99703.29;1693010;83;21060;-71
2021/11/02 11:49:45;;;;;;;17.17;11.80;;;;;;;8.19;88.16;99704.86;1685989;83;21062;-69
2021/11/02 11:52:12;;;;;;;13.27;11.87;;;;;;;8.24;87.99;99710.11;1634836;86;21579;-70
2021/11/02 11:54:54;;;;;;;11.77;10.77;;;;;;;8.25;87.89;99709.08;1629825;88;21544;-71
2021/11/02 11:57:30;;;;;;;12.87;10.93;;;;;;;8.27;88.03;99702.59;1661923;84;20975;-70
2021/11/02 12:00:08;;;;;;;12.37;11.13;;;;;;;8.26;88.03;99686.33;1664790;84;21056;-72
2021/11/02 12:03:32;;;;;;;13.20;11.83;;;;;;;8.27;88.22;99687.14;1657224;84;21585;-72
2021/11/02 12:06:19;;;;;;;12.83;11.53;;;;;;;8.25;88.17;99691.34;1667353;84;21006;-70
2021/11/02 12:08:59;;;;;;;;;;;;;;;8.24;88.40;99691.01;1653041;84;21031;-73
2021/11/02 12:11:30;;;;;;;12.03;11.03;;;;;;;8.25;88.59;99694.00;1658772;84;20977;-70
2021/11/02 12:14:06;;;;;;;15.60;11.97;;;;;;;8.25;88.89;99692.67;1680127;84;21034;-72
2021/11/02 12:16:43;;;;;;;12.30;10.97;;;;;;;8.30;88.95;99691.58;1633738;86;21658;-71
2021/11/02 12:19:23;;;;;;;12.15;10.50;;;;;;;8.33;88.79;99690.39;1626772;86;21066;-72
2021/11/02 12:22:02;;;;;;;13.33;9.87;;;;;;;8.34;88.78;99708.80;1633529;86;21037;-72
2021/11/02 12:24:33;;;;;;;10.80;9.80;;;;;;;8.33;88.56;99705.81;1675366;84;21513;-70
2021/11/02 12:27:20;;;;;;;10.50;9.27;;;;;;;8.34;88.63;99704.81;1673420;84;21010;-75
2021/11/02 12:29:50;;;;;;;10.00;9.00;;;;;;;8.36;88.59;99705.45;1653065;84;21094;-71
2021/11/02 12:32:19;;;;;;;9.13;8.30;;;;;;;8.37;88.67;99700.95;1671723;84;21073;-70
2021/11/02 12:35:04;;;;;;;9.57;8.67;;;;;;;8.39;88.67;99708.22;1666163;84;21028;-73
2021/11/02 12:37:27;;;;;;;10.73;9.23;;;;;;;8.39;88.48;99693.61;1695357;82;21137;-71
2021/11/02 12:39:53;;;;;;;;;;;;;;;8.38;88.57;99699.44;1702544;82;21575;-70
2021/11/02 12:42:38;;;;;;;10.80;9.77;;;;;;;8.37;88.54;99700.95;1699637;82;20113;-72
2021/11/02 12:45:06;;;;;;;11.83;10.63;;;;;;;8.25;88.91;99694.48;1692996;82;21638;-71
2021/11/02 12:47:35;;;;;;;10.53;9.43;;;;;;;8.28;89.01;99708.72;1689665;83;21553;-71
2021/11/02 12:50:04;;;;;;;11.60;10.47;;;;;;;8.30;88.86;99692.90;1689939;83;21091;-70
2021/11/02 12:52:35;;;;;;;12.83;10.63;;;;;;;8.30;88.83;99688.92;1691355;83;21095;-71
2021/11/02 12:55:23;;;;;;;14.33;11.60;;;;;;;8.30;88.91;99684.94;1665903;83;21019;-69
2021/11/02 12:58:13;;;;;;;12.55;11.18;;;;;;;8.32;89.03;99676.78;1672845;83;21065;-73
2021/11/02 13:00:51;;;;;;;13.27;10.73;;;;;;;8.33;89.06;99682.42;1690251;83;21555;-72
2021/11/02 13:03:29;;;;;;;11.60;9.73;;;;;;;8.30;89.08;99669.00;1670796;84;21379;-71
2021/11/02 13:06:02;;;;;;;12.60;11.30;;;;;;;8.30;89.17;99669.00;1666160;84;21046;-71
2021/11/02 13:08:42;;;;;;;10.53;9.57;;;;;;;8.31;89.21;99669.34;1675717;84;21112;-71
2021/11/02 13:11:15;;;;;;;11.47;10.27;;;;;;;8.33;89.23;99667.31;1654121;84;21048;-73
2021/11/02 13:14:14;;;;;;;11.57;10.37;;;;;;;8.34;89.16;99664.98;1664095;85;21566;-72
2021/11/02 13:17:00;;;;;;;11.70;10.60;;;;;;;8.37;89.37;99663.25;1657961;85;21488;-71
2021/11/02 13:19:37;;;;;;;10.90;9.53;;;;;;;8.39;89.36;99663.88;1664084;85;21071;-73
2021/11/02 13:22:13;;;;;;;13.40;12.00;;;;;;;8.41;89.50;99661.05;1648278;84;21037;-70
2021/11/02 13:25:01;;;;;;;11.45;10.25;;;;;;;8.44;89.49;99660.70;1712252;82;21091;-71
2021/11/02 13:27:46;;;;;;;13.65;10.63;;;;;;;8.46;89.47;99651.22;1712915;82;20985;-71
2021/11/02 13:30:40;;;;;;;14.60;13.10;;;;;;;8.48;89.56;99652.66;1700926;84;21647;-72
2021/11/02 13:33:19;;;;;;;14.67;12.73;;;;;;;8.50;89.57;99645.33;1696443;82;21051;-70
2021/11/02 13:36:04;;;;;;;16.70;14.03;;;;;;;8.55;89.50;99636.77;1653448;85;21061;-70
2021/11/02 13:38:38;;;;;;;19.90;15.90;;;;;;;8.55;89.42;99638.94;1661623;85;21002;-69
2021/11/02 13:41:24;;;;;;;19.20;16.27;;;;;;;8.56;89.55;99631.78;1660577;85;21577;-72
2021/11/02 13:43:59;;;;;;;21.13;17.67;;;;;;;8.21;89.44;99579.06;1654724;85;21068;-71
2021/11/02 13:46:27;;;;;;;20.83;17.97;;;;;;;8.61;89.48;99635.17;1658147;84;21031;-71
2021/11/02 13:48:54;;;;;;;20.67;17.83;;;;;;;8.62;89.51;99632.84;1667568;84;21021;-73
2021/11/02 13:51:22;;;;;;;22.33;18.37;;;;;;;8.65;89.60;99629.30;1679958;84;21108;-70
2021/11/02 13:53:49;;;;;;;18.87;16.87;;;;;;;8.67;89.52;99628.59;1680605;84;20981;-70
2021/11/02 13:56:31;;;;;;;20.37;17.93;;;;;;;8.70;89.56;99626.05;1673676;84;21031;-72
2021/11/02 13:59:00;;;;;;;21.77;17.60;;;;;;;8.71;89.56;99623.20;1672029;84;21509;-70
2021/11/02 14:01:45;;;;;;;19.13;16.37;;;;;;;8.75;89.52;99624.45;1679031;84;21012;-70
2021/11/02 14:04:37;;;;;;;18.47;16.10;;;;;;;8.75;89.41;99616.48;1670078;84;20993;-72
2021/11/02 14:07:28;;;;;;;19.40;15.53;;;;;;;8.76;89.47;99618.14;1677932;84;21599;-70
2021/11/02 14:10:06;;;;;;;17.20;15.37;;;;;;;8.76;89.50;99609.35;1667106;84;21117;-70
2021/11/02 14:12:53;;;;;;;19.17;15.63;;;;;;;8.76;89.61;99603.52;1669646;83;22626;-69
2021/11/02 14:15:23;;;;;;;16.20;14.13;;;;;;;8.77;89.60;99609.14;1688951;83;20976;-72
2021/11/02 14:17:58;;;;;;;18.33;14.40;;;;;;;8.80;89.69;99616.41;1692948;83;21199;-70
2021/11/02 14:20:49;;;;;;;16.30;13.70;;;;;;;8.81;89.65;99610.90;1691229;83;21032;-70
2021/11/02 14:23:33;;;;;;;19.03;13.80;;;;;;;8.81;89.57;99608.76;1688190;83;21598;-71
2021/11/02 14:26:26;;;;;;;17.90;14.33;;;;;;;8.83;89.73;99615.51;1673625;84;21056;-71
2021/11/02 14:29:00;;;;;;;18.70;14.27;;;;;;;8.87;89.94;99609.30;1680028;84;21058;-70
2021/11/02 14:31:43;;;;;;;18.37;13.53;;;;;;;8.92;90.04;99611.69;1677888;84;21060;-71
2021/11/02 14:34:42;;;;;;;15.10;13.37;;;;;;;8.97;89.97;99608.45;1684763;83;21112;-70
2021/11/02 14:37:21;;;;;;;18.23;13.33;;;;;;;8.98;89.59;99600.78;1691488;83;21065;-71
2021/11/02 14:40:05;;;;;;;16.80;14.30;;;;;;;8.98;89.66;99609.27;1695400;83;21099;-72
2021/11/02 14:42:50;;;;;;;15.63;13.23;;;;;;;8.98;89.56;99608.75;1694560;83;21044;-73
2021/11/02 14:45:19;;;;;;;15.83;14.10;;;;;;;8.93;89.62;99605.89;1691273;83;21085;-71
2021/11/02 14:47:47;;;;;;;15.37;13.23;;;;;;;8.90;89.73;99600.95;1690846;83;21064;-73
2021/11/02 14:50:36;;;;;;;14.83;13.23;;;;;;;8.89;89.73;99605.94;1692087;83;21536;-72
2021/11/02 14:53:12;;;;;;;18.40;14.63;;;;;;;8.90;89.84;99602.28;1698585;83;21049;-71
2021/11/02 14:56:04;;;;;;;15.93;12.93;;;;;;;8.91;89.95;99603.91;1692495;83;21591;-77
2021/11/02 14:58:48;;;;;;;13.97;12.43;;;;;;;8.94;89.94;99608.84;1692901;83;21079;-71
2021/11/02 15:01:40;;;;;;;13.57;12.17;;;;;;;8.96;90.06;99610.79;1694088;83;21485;-70
2021/11/02 15:04:18;;;;;;;14.77;12.00;;;;;;;8.94;90.08;99603.52;1696315;83;21020;-72
2021/11/02 15:06:58;;;;;;;13.50;12.10;;;;;;;8.97;90.20;99605.80;1695730;83;21078;-71
2021/11/02 15:09:29;;;;;;;16.43;12.83;;;;;;;9.00;90.18;99604.06;1683622;83;20965;-71
2021/11/02 15:11:55;;;;;;;14.50;13.10;;;;;;;9.03;90.21;99597.55;1681562;82;21054;-69
2021/11/02 15:14:30;;;;;;;13.60;11.83;;;;;;;9.06;90.15;99601.12;1686288;83;21059;-72
2021/11/02 15:17:07;;;;;;;13.60;12.30;;;;;;;9.09;90.15;99601.55;1680080;83;21631;-71
2021/11/02 15:19:37;;;;;;;13.05;11.75;;;;;;;9.13;90.00;99612.63;1685458;83;21108;-71
2021/11/02 15:22:11;;;;;;;15.50;13.87;;;;;;;9.14;89.91;99607.11;1697174;83;21517;-71
2021/11/02 15:24:43;;;;;;;13.77;12.37;;;;;;;9.16;90.03;99601.09;1690839;83;22861;-70
2021/11/02 15:27:16;;;;;;;14.87;13.37;;;;;;;9.22;89.90;99605.31;1693501;83;21021;-70
2021/11/02 15:29:47;;;;;;;15.93;13.00;;;;;;;9.19;89.51;99597.72;1688138;83;21076;-72
2021/11/02 15:32:17;;;;;;;15.27;13.67;;;;;;;9.18;89.67;99597.42;1687710;83;21060;-70
2021/11/02 15:34:51;;;;;;;20.43;15.80;;;;;;;9.20;89.67;99607.35;1699038;83;21020;-71
2021/11/02 15:37:28;;;;;;;18.80;16.40;;;;;;;9.22;89.69;99600.81;1688089;83;21081;-71
2021/11/02 15:40:03;;;;;;;18.75;15.45;;;;;;;9.23;89.70;99598.96;1683236;83;21044;-72
2021/11/02 15:42:39;;;;;;;18.23;15.90;;;;;;;9.25;89.74;99599.09;1697231;83;21061;-70
2021/11/02 15:45:31;;;;;;;18.25;16.07;;;;;;;9.27;89.74;99594.39;1693954;82;21554;-71
2021/11/02 15:48:10;;;;;;;21.07;16.77;;;;;;;9.29;89.67;99588.89;1687522;83;21077;-72
2021/11/02 15:50:45;;;;;;;18.50;16.33;;;;;;;9.28;89.53;99590.70;1689309;83;21025;-70
2021/11/02 15:53:12;;;;;;;22.27;17.40;;;;;;;9.28;89.56;99589.89;1694856;83;21017;-72
2021/11/02 15:55:40;;;;;;;21.20;16.83;;;;;;;9.30;89.61;99599.30;1687430;83;21023;-72
2021/11/02 15:58:10;;;;;;;20.40;18.20;;;;;;;9.32;89.52;99607.09;1693566;83;21027;-75
2021/11/02 16:00:40;;;;;;;26.83;18.43;;;;;;;9.31;89.52;99595.64;1697977;83;21052;-70
2021/11/02 16:03:12;;;;;;;19.83;17.73;;;;;;;9.34;89.72;99597.91;1685776;83;21535;-70
2021/11/02 16:05:43;;;;;;;19.67;16.97;;;;;;;9.33;89.61;99585.62;1695829;82;21041;-70
2021/11/02 16:08:21;;;;;;;19.20;17.03;;;;;;;9.39;89.58;99597.30;1700082;83;21607;-72
2021/11/02 16:11:08;;;;;;;20.20;16.93;;;;;;;9.39;89.43;99597.30;1683768;83;21060;-71
2021/11/02 16:13:34;;;;;;;19.23;15.87;;;;;;;9.39;89.40;99608.45;1696801;83;21226;-70
2021/11/02 16:16:07;;;;;;;19.90;16.13;;;;;;;9.40;89.52;99600.77;1692037;83;21548;-72
2021/11/02 16:18:36;;;;;;;17.80;15.93;;;;;;;9.41;89.57;99599.25;1689654;83;21092;-70
2021/11/02 16:21:06;;;;;;;19.80;16.57;;;;;;;9.45;89.59;99602.34;1698703;83;21001;-71
2021/11/02 16:23:47;;;;;;;19.60;15.63;;;;;;;9.45;89.37;99607.14;1713854;83;21572;-72
2021/11/02 16:26:22;;;;;;;17.40;15.07;;;;;;;9.44;89.30;99603.38;1701039;83;21057;-74
2021/11/02 16:28:48;;;;;;;17.03;13.30;;;;;;;9.45;89.44;99601.01;1693669;83;21060;-70
2021/11/02 16:31:25;;;;;;;15.47;13.07;;;;;;;9.46;89.57;99596.83;1685288;83;21040;-71
2021/11/02 16:33:52;;;;;;;16.05;14.07;;;;;;;9.50;89.51;99602.56;1693250;83;21084;-71
2021/11/02 16:36:29;;;;;;;17.37;14.93;;;;;;;9.47;89.58;99595.78;1689103;83;21251;-73
2021/11/02 16:39:01;;;;;;;17.27;14.23;;;;;;;9.43;89.55;99591.89;1692309;83;21104;-71
2021/11/02 16:41:34;;;;;;;17.30;14.80;;;;;;;9.41;89.31;99587.28;1700055;83;21029;-73
2021/11/02 16:44:07;;;;;;;15.83;14.13;;;;;;;9.45;89.46;99583.20;1666067;84;21017;-73
2021/11/02 16:46:51;;;;;;;17.43;15.03;;;;;;;9.48;89.40;99582.00;1699145;83;20990;-79
2021/11/02 16:49:26;;;;;;;16.60;14.80;;;;;;;9.47;89.37;99575.02;1700829;83;21061;-72
2021/11/02 16:52:00;;;;;;;16.80;15.10;;;;;;;9.48;89.51;99577.48;1692238;83;21088;-71
2021/11/02 16:54:31;;;;;;;17.57;15.67;;;;;;;9.49;89.46;99573.83;1679383;83;21005;-71
2021/11/02 16:57:08;;;;;;;15.97;13.83;;;;;;;9.49;89.46;99572.49;1696817;83;21674;-73
2021/11/02 17:00:05;;;;;;;19.50;15.70;;;;;;;9.52;89.61;99573.41;1686777;83;21552;-72